createdAt,value
2017-03-02T00:00:40.727Z,46.15
2017-03-02T00:01:40.756Z,45.87
2017-03-02T00:02:40.781Z,46.15
2017-03-02T00:03:40.410Z,45.97
2017-03-02T00:04:40.842Z,46.06
2017-03-02T00:05:40.854Z,45.87
2017-03-02T00:06:40.489Z,45.87
2017-03-02T00:07:40.920Z,46.06
2017-03-02T00:08:40.941Z,45.87
2017-03-02T00:09:40.982Z,45.77
2017-03-02T00:10:40.598Z,45.97
2017-03-02T00:11:41.274Z,45.97
2017-03-02T00:12:40.655Z,46.25
2017-03-02T00:13:41.085Z,46.25
2017-03-02T00:14:41.104Z,46.45
2017-03-02T00:15:40.732Z,46.35
2017-03-02T00:16:41.033Z,46.64
2017-03-02T00:17:41.199Z,46.64
2017-03-02T00:18:41.212Z,46.35
2017-03-02T00:19:41.248Z,46.25
2017-03-02T00:20:41.286Z,46.45
2017-03-02T00:21:41.247Z,46.06
2017-03-02T00:22:40.927Z,46.15
2017-03-02T00:23:41.363Z,46.45
2017-03-02T00:24:41.376Z,46.35
2017-03-02T00:25:41.409Z,46.25
2017-03-02T00:26:41.693Z,46.35
2017-03-02T00:27:41.465Z,46.64
2017-03-02T00:28:41.094Z,46.64
2017-03-02T00:29:41.511Z,46.73
2017-03-02T00:30:41.144Z,46.35
2017-03-02T00:31:41.828Z,46.73
2017-03-02T00:32:41.593Z,46.64
2017-03-02T00:33:41.227Z,46.64
2017-03-02T00:34:41.255Z,46.35
2017-03-02T00:35:41.688Z,46.55
2017-03-02T00:36:41.552Z,46.35
2017-03-02T00:37:41.734Z,46.83
2017-03-02T00:38:41.366Z,46.35
2017-03-02T00:39:41.782Z,46.73
2017-03-02T00:40:41.807Z,46.64
2017-03-02T00:41:42.099Z,46.25
2017-03-02T00:42:41.864Z,46.73
2017-03-02T00:43:41.893Z,46.25
2017-03-02T00:44:41.918Z,46.25
2017-03-02T00:45:41.955Z,46.15
2017-03-02T00:46:42.235Z,46.73
2017-03-02T00:47:42.004Z,46.35
2017-03-02T00:48:42.035Z,46.64
2017-03-02T00:49:41.658Z,46.35
2017-03-02T00:50:42.080Z,46.35
2017-03-02T00:51:41.714Z,46.25
2017-03-02T00:52:41.740Z,46.64
2017-03-02T00:53:42.163Z,46.35
2017-03-02T00:54:41.808Z,46.45
2017-03-02T00:55:41.830Z,46.25
2017-03-02T00:56:41.847Z,46.35
2017-03-02T00:57:41.875Z,46.35
2017-03-02T00:58:41.945Z,46.25
2017-03-02T00:59:42.332Z,46.25
2017-03-02T01:00:42.365Z,46.35
2017-03-02T01:01:42.378Z,46.35
2017-03-02T01:02:42.407Z,46.55
2017-03-02T01:03:42.435Z,46.15
2017-03-02T01:04:42.464Z,46.15
2017-03-02T01:05:42.489Z,46.25
2017-03-02T01:06:42.126Z,46.35
2017-03-02T01:07:42.155Z,46.25
2017-03-02T01:08:42.588Z,46.25
2017-03-02T01:09:42.216Z,46.25
2017-03-02T01:10:42.622Z,46.25
2017-03-02T01:11:42.653Z,46.23
2017-03-02T01:12:42.691Z,46.25
2017-03-02T01:13:42.707Z,46.15
2017-03-02T01:14:42.347Z,46.15
2017-03-02T01:15:42.761Z,46.25
2017-03-02T01:16:42.388Z,46.25
2017-03-02T01:17:42.822Z,46.25
2017-03-02T01:18:42.451Z,46.25
2017-03-02T01:19:42.476Z,46.25
2017-03-02T01:20:42.909Z,46.25
2017-03-02T01:21:42.529Z,46.15
2017-03-02T01:22:42.950Z,46.35
2017-03-02T01:23:42.980Z,46.25
2017-03-02T01:24:43.008Z,46.25
2017-03-02T01:25:42.649Z,46.25
2017-03-02T01:26:42.681Z,46.25
2017-03-02T01:27:43.101Z,46.15
2017-03-02T01:28:42.732Z,46.06
2017-03-02T01:29:42.751Z,46.25
2017-03-02T01:30:42.788Z,45.77
2017-03-02T01:31:43.205Z,46.45
2017-03-02T01:32:42.846Z,46.25
2017-03-02T01:33:43.255Z,46.33
2017-03-02T01:34:43.280Z,46.25
2017-03-02T01:35:43.301Z,46.25
2017-03-02T01:36:43.341Z,45.77
2017-03-02T01:37:43.360Z,46.25
2017-03-02T01:38:43.001Z,46.23
2017-03-02T01:39:43.415Z,46.25
2017-03-02T01:40:43.440Z,46.42
2017-03-02T01:41:43.081Z,46.15
2017-03-02T01:42:43.098Z,45.97
2017-03-02T01:43:43.526Z,46.23
2017-03-02T01:44:43.551Z,45.87
2017-03-02T01:45:43.580Z,46.23
2017-03-02T01:46:43.605Z,46.14
2017-03-02T01:47:43.233Z,45.65
2017-03-02T01:48:43.673Z,45.68
2017-03-02T01:49:43.291Z,46.33
2017-03-02T01:50:43.732Z,45.94
2017-03-02T01:51:43.740Z,46.52
2017-03-02T01:52:43.779Z,46.15
2017-03-02T01:53:43.797Z,45.75
2017-03-02T01:54:43.431Z,45.87
2017-03-02T01:55:43.849Z,46.42
2017-03-02T01:56:43.876Z,45.75
2017-03-02T01:57:43.905Z,46.04
2017-03-02T01:58:43.532Z,45.84
2017-03-02T01:59:43.563Z,45.75
2017-03-02T02:00:43.980Z,45.77
2017-03-02T02:01:44.013Z,46.14
2017-03-02T02:02:43.637Z,45.94
2017-03-02T02:03:44.062Z,45.94
2017-03-02T02:04:44.107Z,46.23
2017-03-02T02:05:43.736Z,46.14
2017-03-02T02:06:43.764Z,45.84
2017-03-02T02:07:44.175Z,45.65
2017-03-02T02:08:44.205Z,45.84
2017-03-02T02:09:44.230Z,45.65
2017-03-02T02:10:44.262Z,46.04
2017-03-02T02:11:44.284Z,45.84
2017-03-02T02:12:44.312Z,45.75
2017-03-02T02:13:43.940Z,45.94
2017-03-02T02:14:43.966Z,45.94
2017-03-02T02:15:44.395Z,45.84
2017-03-02T02:16:44.034Z,46.04
2017-03-02T02:17:44.715Z,45.75
2017-03-02T02:18:44.482Z,46.04
2017-03-02T02:19:44.499Z,46.14
2017-03-02T02:20:44.131Z,45.84
2017-03-02T02:21:44.556Z,45.94
2017-03-02T02:22:44.833Z,45.65
2017-03-02T02:23:44.603Z,45.84
2017-03-02T02:24:44.642Z,46.14
2017-03-02T02:25:44.663Z,46.14
2017-03-02T02:26:44.309Z,45.46
2017-03-02T02:27:44.969Z,46.14
2017-03-02T02:28:44.753Z,46.04
2017-03-02T02:29:44.766Z,46.14
2017-03-02T02:30:44.799Z,46.04
2017-03-02T02:31:44.836Z,45.84
2017-03-02T02:32:44.704Z,46.04
2017-03-02T02:33:44.872Z,45.94
2017-03-02T02:34:44.510Z,46.04
2017-03-02T02:35:44.543Z,45.75
2017-03-02T02:36:44.957Z,45.75
2017-03-02T02:37:45.244Z,45.75
2017-03-02T02:38:44.621Z,45.94
2017-03-02T02:39:45.042Z,45.84
2017-03-02T02:40:44.671Z,45.84
2017-03-02T02:41:45.100Z,46.23
2017-03-02T02:42:45.372Z,45.94
2017-03-02T02:43:45.149Z,46.33
2017-03-02T02:44:45.174Z,46.33
2017-03-02T02:45:44.805Z,46.23
2017-03-02T02:46:45.236Z,46.14
2017-03-02T02:47:45.504Z,45.84
2017-03-02T02:48:45.280Z,45.84
2017-03-02T02:49:45.309Z,45.94
2017-03-02T02:50:45.338Z,46.04
2017-03-02T02:51:45.367Z,45.84
2017-03-02T02:52:45.643Z,45.84
2017-03-02T02:53:45.415Z,46.04
2017-03-02T02:54:45.446Z,46.23
2017-03-02T02:55:45.086Z,46.23
2017-03-02T02:56:45.103Z,45.84
2017-03-02T02:57:45.387Z,45.94
2017-03-02T02:58:45.552Z,46.33
2017-03-02T02:59:45.193Z,45.75
2017-03-02T03:00:45.606Z,45.94
2017-03-02T03:01:45.243Z,45.75
2017-03-02T03:02:45.911Z,46.04
2017-03-02T03:03:45.293Z,45.94
2017-03-02T03:04:45.317Z,46.04
2017-03-02T03:05:45.355Z,45.94
2017-03-02T03:06:45.378Z,46.04
2017-03-02T03:07:46.047Z,46.23
2017-03-02T03:08:45.824Z,45.84
2017-03-02T03:09:45.453Z,45.63
2017-03-02T03:10:45.873Z,45.94
2017-03-02T03:11:45.901Z,45.65
2017-03-02T03:12:45.935Z,46.14
2017-03-02T03:13:45.971Z,45.94
2017-03-02T03:14:45.985Z,45.94
2017-03-02T03:15:45.617Z,45.84
2017-03-02T03:16:45.642Z,45.84
2017-03-02T03:17:45.673Z,46.23
2017-03-02T03:18:45.696Z,45.92
2017-03-02T03:19:45.720Z,45.94
2017-03-02T03:20:46.157Z,45.94
2017-03-02T03:21:45.778Z,46.04
2017-03-02T03:22:45.799Z,45.75
2017-03-02T03:23:46.227Z,46.01
2017-03-02T03:24:46.258Z,46.14
2017-03-02T03:25:46.277Z,45.83
2017-03-02T03:26:46.302Z,45.92
2017-03-02T03:27:45.946Z,46.11
2017-03-02T03:28:46.360Z,45.75
2017-03-02T03:29:46.392Z,46.01
2017-03-02T03:30:46.423Z,46.01
2017-03-02T03:31:46.070Z,46.01
2017-03-02T03:32:46.467Z,45.63
2017-03-02T03:33:46.503Z,45.94
2017-03-02T03:34:46.519Z,45.92
2017-03-02T03:35:46.560Z,45.92
2017-03-02T03:36:46.177Z,46.11
2017-03-02T03:37:46.213Z,45.92
2017-03-02T03:38:46.558Z,46.21
2017-03-02T03:39:46.655Z,45.92
2017-03-02T03:40:46.689Z,46.01
2017-03-02T03:41:46.717Z,45.92
2017-03-02T03:42:46.754Z,45.83
2017-03-02T03:43:46.766Z,45.83
2017-03-02T03:44:46.799Z,45.94
2017-03-02T03:45:46.821Z,46.01
2017-03-02T03:46:46.444Z,46.14
2017-03-02T03:47:46.473Z,46.11
2017-03-02T03:48:46.899Z,46.11
2017-03-02T03:49:46.531Z,45.63
2017-03-02T03:50:46.552Z,45.63
2017-03-02T03:51:46.578Z,46.21
2017-03-02T03:52:47.005Z,45.63
2017-03-02T03:53:47.034Z,46.21
2017-03-02T03:54:46.672Z,45.83
2017-03-02T03:55:47.110Z,45.92
2017-03-02T03:56:46.711Z,45.83
2017-03-02T03:57:46.741Z,45.92
2017-03-02T03:58:47.417Z,46.01
2017-03-02T03:59:47.203Z,45.44
2017-03-02T04:00:47.224Z,45.63
2017-03-02T04:01:47.242Z,45.73
2017-03-02T04:02:47.280Z,46.11
2017-03-02T04:03:47.557Z,46.11
2017-03-02T04:04:47.332Z,46.01
2017-03-02T04:05:46.964Z,45.44
2017-03-02T04:06:47.391Z,45.83
2017-03-02T04:07:47.012Z,45.92
2017-03-02T04:08:47.287Z,45.63
2017-03-02T04:09:47.461Z,45.92
2017-03-02T04:10:47.490Z,45.63
2017-03-02T04:11:47.509Z,46.01
2017-03-02T04:12:47.536Z,45.44
2017-03-02T04:13:47.428Z,45.83
2017-03-02T04:14:47.598Z,45.53
2017-03-02T04:15:47.622Z,45.73
2017-03-02T04:16:47.668Z,45.83
2017-03-02T04:17:47.291Z,45.83
2017-03-02T04:18:47.952Z,46.11
2017-03-02T04:19:47.341Z,45.83
2017-03-02T04:20:47.362Z,45.34
2017-03-02T04:21:47.782Z,45.63
2017-03-02T04:22:47.814Z,45.63
2017-03-02T04:23:47.694Z,45.44
2017-03-02T04:24:47.868Z,45.53
2017-03-02T04:25:47.893Z,45.44
2017-03-02T04:26:47.518Z,45.53
2017-03-02T04:27:47.542Z,45.73
2017-03-02T04:28:47.855Z,45.92
2017-03-02T04:29:47.995Z,45.73
2017-03-02T04:30:47.624Z,45.53
2017-03-02T04:31:47.653Z,45.73
2017-03-02T04:32:48.071Z,45.63
2017-03-02T04:33:48.358Z,45.44
2017-03-02T04:34:48.127Z,45.44
2017-03-02T04:35:48.168Z,45.73
2017-03-02T04:36:48.171Z,45.92
2017-03-02T04:37:48.233Z,45.53
2017-03-02T04:38:48.482Z,45.15
2017-03-02T04:39:47.867Z,45.15
2017-03-02T04:40:47.903Z,45.05
2017-03-02T04:41:48.335Z,45.83
2017-03-02T04:42:48.340Z,45.83
2017-03-02T04:43:47.978Z,45.63
2017-03-02T04:44:48.011Z,45.53
2017-03-02T04:45:48.419Z,45.73
2017-03-02T04:46:48.448Z,45.83
2017-03-02T04:47:48.088Z,45.44
2017-03-02T04:48:48.501Z,45.53
2017-03-02T04:49:48.541Z,45.83
2017-03-02T04:50:48.555Z,45.83
2017-03-02T04:51:48.580Z,45.25
2017-03-02T04:52:48.608Z,45.53
2017-03-02T04:53:48.637Z,45.83
2017-03-02T04:54:48.274Z,45.53
2017-03-02T04:55:48.693Z,45.63
2017-03-02T04:56:48.319Z,45.73
2017-03-02T04:57:48.755Z,45.25
2017-03-02T04:58:48.769Z,45.63
2017-03-02T04:59:48.797Z,45.83
2017-03-02T05:00:48.827Z,45.92
2017-03-02T05:01:48.855Z,45.73
2017-03-02T05:02:48.488Z,45.73
2017-03-02T05:03:48.904Z,45.73
2017-03-02T05:04:48.533Z,45.53
2017-03-02T05:05:48.949Z,45.63
2017-03-02T05:06:48.991Z,45.63
2017-03-02T05:07:48.610Z,45.83
2017-03-02T05:08:48.648Z,45.34
2017-03-02T05:09:49.069Z,45.53
2017-03-02T05:10:49.120Z,45.83
2017-03-02T05:11:48.718Z,45.25
2017-03-02T05:12:49.157Z,45.53
2017-03-02T05:13:48.771Z,45.25
2017-03-02T05:14:48.800Z,45.7
2017-03-02T05:15:49.228Z,45.83
2017-03-02T05:16:49.244Z,45.51
2017-03-02T05:17:49.277Z,45.22
2017-03-02T05:18:49.307Z,45.53
2017-03-02T05:19:49.340Z,45.53
2017-03-02T05:20:49.350Z,45.73
2017-03-02T05:21:49.381Z,45.15
2017-03-02T05:22:49.422Z,45.53
2017-03-02T05:23:49.050Z,45.25
2017-03-02T05:24:49.464Z,45.34
2017-03-02T05:25:49.493Z,45.25
2017-03-02T05:26:49.518Z,45.44
2017-03-02T05:27:49.569Z,45.34
2017-03-02T05:28:49.177Z,45.15
2017-03-02T05:29:49.604Z,44.57
2017-03-02T05:30:49.224Z,44.86
2017-03-02T05:31:49.649Z,45.15
2017-03-02T05:32:49.276Z,44.96
2017-03-02T05:33:49.703Z,44.28
2017-03-02T05:34:49.330Z,44.09
2017-03-02T05:35:49.359Z,44.48
2017-03-02T05:36:49.382Z,44.76
2017-03-02T05:37:49.802Z,44.48
2017-03-02T05:38:49.442Z,44.67
2017-03-02T05:39:50.106Z,45.15
2017-03-02T05:40:49.491Z,45.15
2017-03-02T05:41:49.912Z,44.67
2017-03-02T05:42:49.549Z,45.44
2017-03-02T05:43:49.582Z,45.34
2017-03-02T05:44:49.843Z,45.34
2017-03-02T05:45:49.623Z,45.44
2017-03-02T05:46:49.653Z,45.92
2017-03-02T05:47:49.698Z,45.83
2017-03-02T05:48:50.121Z,45.63
2017-03-02T05:49:49.982Z,45.53
2017-03-02T05:50:50.151Z,45.83
2017-03-02T05:51:49.779Z,45.53
2017-03-02T05:52:49.833Z,45.83
2017-03-02T05:53:50.242Z,45.73
2017-03-02T05:54:50.110Z,45.83
2017-03-02T05:55:49.891Z,45.83
2017-03-02T05:56:50.304Z,45.15
2017-03-02T05:57:50.333Z,45.15
2017-03-02T05:58:50.374Z,44.86
2017-03-02T05:59:50.246Z,45.15
2017-03-02T06:00:50.419Z,45.25
2017-03-02T06:01:50.443Z,44.98
2017-03-02T06:02:50.088Z,45.27
2017-03-02T06:03:50.509Z,45.07
2017-03-02T06:04:50.784Z,44.28
2017-03-02T06:05:50.151Z,44.57
2017-03-02T06:06:50.592Z,44.79
2017-03-02T06:07:50.596Z,44.69
2017-03-02T06:08:50.245Z,44.89
2017-03-02T06:09:50.915Z,44.89
2017-03-02T06:10:50.286Z,44.59
2017-03-02T06:11:50.718Z,44.31
2017-03-02T06:12:50.738Z,44.49
2017-03-02T06:13:50.369Z,44.79
2017-03-02T06:14:51.064Z,44.4
2017-03-02T06:15:50.427Z,44.4
2017-03-02T06:16:50.443Z,44.79
2017-03-02T06:17:50.876Z,44.49
2017-03-02T06:18:50.505Z,44.79
2017-03-02T06:19:50.533Z,44.69
2017-03-02T06:20:50.954Z,44.69
2017-03-02T06:21:50.584Z,44.79
2017-03-02T06:22:51.004Z,44.11
2017-03-02T06:23:50.648Z,44.02
2017-03-02T06:24:50.657Z,44.89
2017-03-02T06:25:50.690Z,44.59
2017-03-02T06:26:51.110Z,44.79
2017-03-02T06:27:50.742Z,44.69
2017-03-02T06:28:51.168Z,44.69
2017-03-02T06:29:51.219Z,44.81
2017-03-02T06:30:50.827Z,44.79
2017-03-02T06:31:50.850Z,44.79
2017-03-02T06:32:50.874Z,44.81
2017-03-02T06:33:51.300Z,44.89
2017-03-02T06:34:51.325Z,44.69
2017-03-02T06:35:51.356Z,44.79
2017-03-02T06:36:50.982Z,44.79
2017-03-02T06:37:51.407Z,44.62
2017-03-02T06:38:51.043Z,44.69
2017-03-02T06:39:51.064Z,44.42
2017-03-02T06:40:51.489Z,44.42
2017-03-02T06:41:51.514Z,44.04
2017-03-02T06:42:51.543Z,44.9
2017-03-02T06:43:51.567Z,44.81
2017-03-02T06:44:51.592Z,44.81
2017-03-02T06:45:51.613Z,44.23
2017-03-02T06:46:51.650Z,44.52
2017-03-02T06:47:51.674Z,43.65
2017-03-02T06:48:51.701Z,44.13
2017-03-02T06:49:51.331Z,44.04
2017-03-02T06:50:51.748Z,43.75
2017-03-02T06:51:51.386Z,43.46
2017-03-02T06:52:51.805Z,43.27
2017-03-02T06:53:51.839Z,43.37
2017-03-02T06:54:51.863Z,43.07
2017-03-02T06:55:51.887Z,42.49
2017-03-02T06:56:51.917Z,42.96
2017-03-02T06:57:51.550Z,42.86
2017-03-02T06:58:51.982Z,43.15
2017-03-02T06:59:51.999Z,43.05
2017-03-02T07:00:52.037Z,42.47
2017-03-02T07:01:51.657Z,43.24
2017-03-02T07:02:51.693Z,42.97
2017-03-02T07:03:52.102Z,43.17
2017-03-02T07:04:51.738Z,42.49
2017-03-02T07:05:52.155Z,42.32
2017-03-02T07:06:52.194Z,41.36
2017-03-02T07:07:52.209Z,40.78
2017-03-02T07:08:51.846Z,40.7
2017-03-02T07:09:51.878Z,39.74
2017-03-02T07:10:52.291Z,39.86
2017-03-02T07:11:51.936Z,39.37
2017-03-02T07:12:51.958Z,38.79
2017-03-02T07:13:52.373Z,39.29
2017-03-02T07:14:52.001Z,38.71
2017-03-02T07:15:52.042Z,38.81
2017-03-02T07:16:52.471Z,38.43
2017-03-02T07:17:52.084Z,37.87
2017-03-02T07:18:52.135Z,37.95
2017-03-02T07:19:52.536Z,38.04
2017-03-02T07:20:52.564Z,37.58
2017-03-02T07:21:52.603Z,37.48
2017-03-02T07:22:52.622Z,37.29
2017-03-02T07:23:52.643Z,37
2017-03-02T07:24:52.672Z,37.38
2017-03-02T07:25:52.716Z,37.38
2017-03-02T07:26:52.329Z,37.67
2017-03-02T07:27:52.754Z,37.17
2017-03-02T07:28:52.784Z,37.27
2017-03-02T07:29:52.812Z,37.46
2017-03-02T07:30:52.437Z,37.27
2017-03-02T07:31:52.866Z,37.65
2017-03-02T07:32:52.495Z,38.02
2017-03-02T07:33:52.532Z,37.63
2017-03-02T07:34:52.948Z,38.12
2017-03-02T07:35:52.585Z,38.02
2017-03-02T07:36:52.604Z,37.63
2017-03-02T07:37:53.050Z,37.93
2017-03-02T07:38:53.054Z,37.93
2017-03-02T07:39:53.083Z,37.73
2017-03-02T07:40:52.717Z,38.02
2017-03-02T07:41:52.745Z,38.02
2017-03-02T07:42:52.769Z,38.41
2017-03-02T07:43:53.207Z,38.1
2017-03-02T07:44:53.219Z,38.49
2017-03-02T07:45:53.251Z,38.49
2017-03-02T07:46:53.275Z,38.49
2017-03-02T07:47:52.938Z,38.87
2017-03-02T07:48:52.934Z,38.87
2017-03-02T07:49:53.375Z,38.97
2017-03-02T07:50:53.385Z,38.97
2017-03-02T07:51:53.016Z,38.85
2017-03-02T07:52:53.056Z,39.14
2017-03-02T07:53:53.470Z,38.46
2017-03-02T07:54:53.503Z,38.76
2017-03-02T07:55:53.575Z,39.14
2017-03-02T07:56:53.552Z,38.66
2017-03-02T07:57:53.180Z,38.76
2017-03-02T07:58:53.223Z,38.56
2017-03-02T07:59:53.628Z,38.76
2017-03-02T08:00:53.670Z,39.14
2017-03-02T08:01:53.295Z,39.14
2017-03-02T08:02:53.324Z,38.54
2017-03-02T08:03:53.355Z,38.83
2017-03-02T08:04:53.773Z,38.83
2017-03-02T08:05:53.398Z,39.04
2017-03-02T08:06:53.820Z,38.83
2017-03-02T08:07:53.452Z,38.64
2017-03-02T08:08:53.480Z,38.83
2017-03-02T08:09:53.906Z,38.93
2017-03-02T08:10:53.795Z,38.64
2017-03-02T08:11:53.971Z,39.22
2017-03-02T08:12:53.996Z,39.22
2017-03-02T08:13:53.621Z,39.03
2017-03-02T08:14:53.656Z,38.93
2017-03-02T08:15:54.318Z,38.74
2017-03-02T08:16:53.694Z,38.93
2017-03-02T08:17:54.119Z,38.74
2017-03-02T08:18:54.249Z,38.74
2017-03-02T08:19:53.786Z,38.35
2017-03-02T08:20:54.458Z,37.96
2017-03-02T08:21:54.226Z,38.26
2017-03-02T08:22:54.255Z,38.26
2017-03-02T08:23:53.908Z,37.77
2017-03-02T08:24:54.309Z,37.58
2017-03-02T08:25:54.602Z,37.58
2017-03-02T08:26:53.969Z,37.58
2017-03-02T08:27:54.013Z,37.68
2017-03-02T08:28:54.028Z,37.96
2017-03-02T08:29:54.479Z,37.87
2017-03-02T08:30:54.329Z,38.26
2017-03-02T08:31:54.502Z,38.45
2017-03-02T08:32:54.143Z,38.35
2017-03-02T08:33:54.555Z,38.26
2017-03-02T08:34:54.184Z,38.16
2017-03-02T08:35:54.869Z,38.35
2017-03-02T08:36:54.649Z,38.35
2017-03-02T08:37:54.274Z,38.43
2017-03-02T08:38:54.711Z,38.04
2017-03-02T08:39:54.716Z,38.04
2017-03-02T08:40:54.993Z,38.14
2017-03-02T08:41:54.769Z,37.76
2017-03-02T08:42:54.796Z,38.04
2017-03-02T08:43:54.819Z,37.76
2017-03-02T08:44:54.460Z,37.87
2017-03-02T08:45:55.129Z,37.68
2017-03-02T08:46:54.513Z,37.66
2017-03-02T08:47:54.529Z,37.37
2017-03-02T08:48:54.571Z,37.56
2017-03-02T08:49:54.591Z,37.68
2017-03-02T08:50:55.012Z,37.66
2017-03-02T08:51:54.689Z,37.27
2017-03-02T08:52:55.078Z,37.18
2017-03-02T08:53:55.123Z,37.19
2017-03-02T08:54:54.726Z,37.37
2017-03-02T08:55:55.146Z,37.18
2017-03-02T08:56:54.774Z,37.08
2017-03-02T08:57:55.211Z,36.89
2017-03-02T08:58:54.829Z,37.37
2017-03-02T08:59:55.255Z,36.71
2017-03-02T09:00:54.883Z,36.71
2017-03-02T09:01:55.309Z,36.04
2017-03-02T09:02:55.336Z,35.85
2017-03-02T09:03:55.361Z,35.94
2017-03-02T09:04:55.406Z,36.04
2017-03-02T09:05:55.018Z,36.23
2017-03-02T09:06:55.053Z,36.13
2017-03-02T09:07:55.072Z,36.33
2017-03-02T09:08:55.113Z,36.6
2017-03-02T09:09:55.525Z,37.29
2017-03-02T09:10:55.151Z,37.87
2017-03-02T09:11:55.184Z,38.43
2017-03-02T09:12:55.603Z,38.72
2017-03-02T09:13:55.633Z,39.2
2017-03-02T09:14:55.274Z,39.78
2017-03-02T09:15:55.299Z,39.97
2017-03-02T09:16:55.319Z,40.84
2017-03-02T09:17:55.752Z,41.22
2017-03-02T09:18:55.364Z,41.22
2017-03-02T09:19:55.410Z,42.21
2017-03-02T09:20:55.427Z,41.99
2017-03-02T09:21:55.839Z,42.28
2017-03-02T09:22:55.876Z,42.09
2017-03-02T09:23:55.897Z,42.59
2017-03-02T09:24:55.932Z,42.59
2017-03-02T09:25:55.553Z,42.59
2017-03-02T09:26:55.586Z,43.07
2017-03-02T09:27:55.621Z,42.69
2017-03-02T09:28:56.037Z,42.97
2017-03-02T09:29:56.065Z,43.37
2017-03-02T09:30:56.089Z,43.75
2017-03-02T09:31:55.722Z,43.65
2017-03-02T09:32:55.742Z,43.94
2017-03-02T09:33:56.172Z,44.23
2017-03-02T09:34:55.805Z,44.31
2017-03-02T09:35:56.267Z,44.71
2017-03-02T09:36:56.253Z,44.81
2017-03-02T09:37:56.283Z,44.71
2017-03-02T09:38:55.910Z,45.1
2017-03-02T09:39:56.336Z,45.58
2017-03-02T09:40:56.365Z,45.58
2017-03-02T09:41:56.649Z,45.68
2017-03-02T09:42:56.422Z,45.77
2017-03-02T09:43:56.444Z,45.2
2017-03-02T09:44:56.477Z,45.77
2017-03-02T09:45:56.496Z,45.97
2017-03-02T09:46:56.773Z,46.15
2017-03-02T09:47:56.567Z,46.25
2017-03-02T09:48:56.595Z,46.55
2017-03-02T09:49:56.603Z,45.87
2017-03-02T09:50:56.649Z,46.25
2017-03-02T09:51:56.905Z,46.45
2017-03-02T09:52:56.687Z,46.35
2017-03-02T09:53:56.331Z,46.45
2017-03-02T09:54:56.740Z,46.45
2017-03-02T09:55:56.764Z,46.64
2017-03-02T09:56:56.654Z,46.35
2017-03-02T09:57:56.422Z,47.03
2017-03-02T09:58:56.477Z,47.41
2017-03-02T09:59:56.879Z,47.7
2017-03-02T10:00:56.902Z,47.49
2017-03-02T10:01:56.816Z,47.51
2017-03-02T10:02:56.561Z,47.1
2017-03-02T10:03:56.590Z,47.6
2017-03-02T10:04:57.015Z,47.7
2017-03-02T10:05:56.651Z,47.87
2017-03-02T10:06:57.310Z,47.87
2017-03-02T10:07:56.695Z,47.77
2017-03-02T10:08:56.735Z,48.16
2017-03-02T10:09:56.747Z,48.64
2017-03-02T10:10:57.187Z,48.16
2017-03-02T10:11:57.057Z,48.06
2017-03-02T10:12:56.833Z,47.87
2017-03-02T10:13:57.254Z,47.19
2017-03-02T10:14:57.282Z,47.97
2017-03-02T10:15:56.928Z,48.44
2017-03-02T10:16:57.592Z,48.54
2017-03-02T10:17:57.365Z,48.35
2017-03-02T10:18:57.006Z,48.54
2017-03-02T10:19:57.419Z,48.44
2017-03-02T10:20:57.458Z,48.54
2017-03-02T10:21:57.720Z,48.83
2017-03-02T10:22:57.101Z,48.54
2017-03-02T10:23:57.130Z,48.83
2017-03-02T10:24:57.550Z,48.93
2017-03-02T10:25:57.580Z,48.93
2017-03-02T10:26:57.471Z,49.32
2017-03-02T10:27:57.237Z,48.83
2017-03-02T10:28:57.661Z,48.74
2017-03-02T10:29:57.302Z,49.32
2017-03-02T10:30:57.315Z,49.41
2017-03-02T10:31:57.595Z,49.12
2017-03-02T10:32:57.769Z,48.83
2017-03-02T10:33:57.398Z,48.74
2017-03-02T10:34:57.427Z,48.54
2017-03-02T10:35:57.847Z,48.74
2017-03-02T10:36:57.731Z,48.93
2017-03-02T10:37:57.905Z,48.93
2017-03-02T10:38:57.931Z,48.93
2017-03-02T10:39:57.562Z,49.02
2017-03-02T10:40:57.587Z,49.02
2017-03-02T10:41:58.262Z,49.12
2017-03-02T10:42:58.048Z,48.83
2017-03-02T10:43:58.065Z,49.32
2017-03-02T10:44:57.697Z,49.34
2017-03-02T10:45:58.119Z,48.57
2017-03-02T10:46:58.399Z,48.95
2017-03-02T10:47:58.184Z,48.66
2017-03-02T10:48:57.823Z,48.76
2017-03-02T10:49:58.222Z,49.05
2017-03-02T10:50:57.880Z,48.86
2017-03-02T10:51:58.535Z,48.66
2017-03-02T10:52:58.307Z,48.28
2017-03-02T10:53:57.949Z,48.66
2017-03-02T10:54:58.373Z,48.95
2017-03-02T10:55:57.997Z,48.08
2017-03-02T10:56:58.032Z,48.57
2017-03-02T10:57:58.443Z,48.76
2017-03-02T10:58:58.084Z,47.7
2017-03-02T10:59:58.501Z,48.66
2017-03-02T11:00:58.528Z,47.51
2017-03-02T11:01:58.554Z,47.41
2017-03-02T11:02:58.583Z,47.89
2017-03-02T11:03:58.212Z,48.57
2017-03-02T11:04:58.646Z,47.41
2017-03-02T11:05:58.653Z,48.86
2017-03-02T11:06:58.701Z,48.86
2017-03-02T11:07:58.711Z,49.02
2017-03-02T11:08:58.761Z,48.64
2017-03-02T11:09:58.774Z,48.83
2017-03-02T11:10:58.407Z,48.54
2017-03-02T11:11:58.424Z,48.74
2017-03-02T11:12:58.856Z,49.12
2017-03-02T11:13:58.881Z,49.12
2017-03-02T11:14:58.513Z,49.22
2017-03-02T11:15:58.545Z,49.79
2017-03-02T11:16:58.967Z,49.41
2017-03-02T11:17:58.991Z,49.41
2017-03-02T11:18:59.024Z,49.41
2017-03-02T11:19:59.056Z,49.32
2017-03-02T11:20:58.669Z,49.41
2017-03-02T11:21:58.702Z,49.79
2017-03-02T11:22:59.126Z,49.41
2017-03-02T11:23:58.768Z,49.82
2017-03-02T11:24:58.809Z,49.82
2017-03-02T11:25:58.807Z,49.63
2017-03-02T11:26:59.234Z,48.93
2017-03-02T11:27:58.862Z,49.43
2017-03-02T11:28:58.887Z,49.24
2017-03-02T11:29:58.920Z,48.86
2017-03-02T11:30:58.945Z,49.15
2017-03-02T11:31:58.974Z,49.24
2017-03-02T11:32:59.398Z,49.05
2017-03-02T11:33:59.038Z,48.47
2017-03-02T11:34:59.452Z,49.05
2017-03-02T11:35:59.484Z,48.47
2017-03-02T11:36:59.505Z,48.66
2017-03-02T11:37:59.529Z,48.66
2017-03-02T11:38:59.558Z,48.57
2017-03-02T11:39:59.587Z,48.49
2017-03-02T11:40:59.616Z,48.59
2017-03-02T11:41:59.636Z,48.59
2017-03-02T11:42:59.926Z,47.72
2017-03-02T11:43:59.698Z,47.53
2017-03-02T11:44:59.728Z,47.63
2017-03-02T11:45:59.752Z,47.34
2017-03-02T11:46:59.384Z,47.92
2017-03-02T11:48:00.062Z,46.95
2017-03-02T11:48:59.843Z,46.86
2017-03-02T11:49:59.864Z,46.2
2017-03-02T11:50:59.889Z,46.88
2017-03-02T11:51:59.916Z,47.36
2017-03-02T11:53:00.201Z,47.36
2017-03-02T11:53:59.982Z,47.36
2017-03-02T11:54:59.999Z,47.75
2017-03-02T11:55:59.632Z,47.36
2017-03-02T11:56:59.661Z,47.45
2017-03-02T11:57:59.974Z,47.19
2017-03-02T11:58:59.731Z,46.03
2017-03-02T11:59:59.743Z,46.42
2017-03-02T12:00:59.799Z,45.94
2017-03-02T12:01:59.804Z,46.23
2017-03-02T12:03:00.078Z,46.44
2017-03-02T12:04:00.261Z,46.13
2017-03-02T12:05:00.282Z,45.67
2017-03-02T12:06:00.320Z,45.86
2017-03-02T12:07:00.333Z,45.96
2017-03-02T12:08:00.614Z,45.31
2017-03-02T12:09:00.386Z,45.31
2017-03-02T12:10:00.027Z,44.73
2017-03-02T12:11:00.451Z,44.24
2017-03-02T12:12:00.468Z,43.76
2017-03-02T12:13:00.753Z,44.07
2017-03-02T12:14:00.168Z,43.4
2017-03-02T12:15:00.559Z,43.3
2017-03-02T12:16:00.591Z,42.72
2017-03-02T12:17:00.217Z,42.33
2017-03-02T12:18:00.912Z,42.52
2017-03-02T12:19:00.670Z,42.62
2017-03-02T12:20:00.303Z,42.14
2017-03-02T12:21:00.733Z,42.43
2017-03-02T12:22:00.772Z,42.52
2017-03-02T12:23:01.025Z,42.62
2017-03-02T12:24:00.448Z,42.33
2017-03-02T12:25:00.841Z,42.6
2017-03-02T12:26:00.879Z,42.7
2017-03-02T12:27:00.496Z,42.6
2017-03-02T12:28:00.786Z,42.7
2017-03-02T12:29:00.961Z,42.5
2017-03-02T12:30:00.586Z,42.5
2017-03-02T12:31:01.018Z,41.54
2017-03-02T12:32:01.038Z,42.24
2017-03-02T12:33:01.320Z,42.33
2017-03-02T12:34:01.098Z,41.56
2017-03-02T12:35:00.746Z,41.27
2017-03-02T12:36:01.159Z,41
2017-03-02T12:37:00.788Z,40.61
2017-03-02T12:38:01.468Z,40.23
2017-03-02T12:39:01.263Z,39.86
2017-03-02T12:40:00.876Z,39.76
2017-03-02T12:41:00.899Z,39.86
2017-03-02T12:42:01.328Z,39.18
2017-03-02T12:43:00.961Z,38.71
2017-03-02T12:44:00.991Z,38.62
2017-03-02T12:45:01.018Z,38.91
2017-03-02T12:46:01.443Z,39.11
2017-03-02T12:47:01.071Z,39.03
2017-03-02T12:48:01.500Z,38.64
2017-03-02T12:49:01.533Z,38.93
2017-03-02T12:50:01.573Z,38.83
2017-03-02T12:51:01.207Z,38.64
2017-03-02T12:52:01.224Z,37.96
2017-03-02T12:53:01.256Z,37.87
2017-03-02T12:54:01.677Z,38.06